Time;durP1;ratioP1;P1;durP2;ratioP2;P2;SDS_P1;SDS_P2;PMS_P1;PMS_P2;Temp;Humidity;BMP_temperature;BMP_pressure;BME280_temperature;BME280_humidity;BME280_pressure;Samples;Min_cycle;Max_cycle;Signal;HPM_P1;HPM_P2
2022/04/22 00:01:02;;;;;;;5.70;4.10;;;8.30;97.70;;;8.08;68.01;100696.69;4807511;29;20196;-68
2022/04/22 00:03:31;;;;;;;7.22;3.85;;;8.20;98.40;;;8.08;67.89;100691.28;4827759;24;20236;-69
2022/04/22 00:06:00;;;;;;;5.25;3.85;;;8.20;99.20;;;8.00;68.02;100694.91;4824290;29;20189;-69
2022/04/22 00:08:29;;;;;;;8.35;4.38;;;8.10;99.30;;;7.95;68.22;100694.66;4824962;29;20260;-68
2022/04/22 00:13:45;;;;;;;7.00;4.13;;;8.00;99.90;;;7.70;69.41;100690.63;4821170;29;20265;-70
2022/04/22 00:16:14;;;;;;;9.23;4.68;;;7.90;99.90;;;7.59;69.64;100685.72;4806823;29;20760;-70
2022/04/22 00:18:43;;;;;;;6.50;4.15;;;7.80;99.90;;;7.50;70.28;100686.84;4806695;29;20182;-67
2022/04/22 00:21:11;;;;;;;6.25;3.80;;;7.70;99.90;;;7.50;70.52;100687.69;4797717;29;20201;-70
2022/04/22 00:23:40;;;;;;;11.35;4.82;;;7.70;99.90;;;7.50;70.47;100692.25;4788475;29;20218;-69
2022/04/22 00:26:15;;;;;;;9.43;4.30;;;7.60;99.90;;;7.45;70.47;100686.59;4788726;29;20644;-69
2022/04/22 00:28:46;;;;;;;5.38;4.88;;;7.60;99.90;;;7.43;70.90;100687.59;4788673;29;20202;-68
2022/04/22 00:31:15;;;;;;;7.30;5.07;;;7.60;99.90;;;7.40;70.98;100690.66;4788721;29;20194;-69
2022/04/22 00:33:44;;;;;;;5.28;4.22;;;7.60;99.90;;;7.42;70.92;100694.00;4788448;29;20214;-69
2022/04/22 00:36:12;;;;;;;11.07;5.68;;;7.50;99.90;;;7.43;71.01;100697.53;4788811;29;20257;-69
2022/04/22 00:38:41;;;;;;;9.75;5.20;;;7.50;99.90;;;7.33;71.13;100678.13;4788653;29;20202;-68
2022/04/22 00:41:10;;;;;;;8.52;5.80;;;7.50;99.90;;;7.23;71.67;100680.25;4787695;29;20262;-68
2022/04/22 00:43:46;;;;;;;8.55;5.68;;;7.50;99.90;;;7.12;72.24;100672.63;4788482;29;20588;-69
2022/04/22 00:46:15;;;;;;;9.60;6.78;;;7.40;99.90;;;7.09;72.36;100673.03;4788676;29;20257;-69
2022/04/22 00:48:44;;;;;;;7.63;4.65;;;7.30;99.90;;;6.98;72.34;100667.06;4788513;29;20562;-68
2022/04/22 00:51:13;;;;;;;8.43;5.03;;;7.20;99.90;;;7.05;72.25;100672.56;4788299;29;20187;-70
2022/04/22 00:53:46;;;;;;;6.28;4.97;;;7.20;99.90;;;6.96;72.56;100673.66;4788328;29;20704;-70
2022/04/22 00:56:15;;;;;;;8.07;5.15;;;7.10;99.90;;;7.02;72.42;100667.53;4788282;29;20265;-69
2022/04/22 00:58:48;;;;;;;10.32;5.72;;;7.10;99.90;;;6.84;73.11;100675.97;4787887;29;20198;-69
2022/04/22 01:01:18;;;;;;;7.13;5.25;;;7.00;99.90;;;6.78;73.32;100665.94;4788124;29;20565;-69
2022/04/22 01:12:07;;;;;;;8.30;6.10;;;6.70;99.90;;;6.41;74.82;100669.47;4788453;29;20178;-68
2022/04/22 01:14:37;;;;;;;10.40;6.70;;;6.60;99.90;;;6.45;74.72;100662.72;4788558;29;20646;-70
2022/04/22 01:17:07;;;;;;;10.65;8.27;;;6.60;99.90;;;6.34;75.13;100663.13;4788287;29;20214;-67
2022/04/22 01:19:36;;;;;;;11.18;7.20;;;6.60;99.90;;;6.33;75.07;100660.66;4788506;29;20198;-70
2022/04/22 01:22:07;;;;;;;10.88;8.30;;;6.50;99.90;;;6.16;75.67;100653.72;4787696;29;20228;-69
2022/04/22 01:24:37;;;;;;;12.50;6.75;;;6.40;99.90;;;6.32;75.47;100653.59;4787797;29;20237;-68
2022/04/22 01:27:10;;;;;;;11.82;7.88;;;6.40;99.90;;;6.27;75.53;100658.66;4788139;29;20190;-70
2022/04/22 01:29:39;;;;;;;9.73;7.15;;;6.40;99.90;;;6.18;75.61;100663.28;4788229;29;20264;-68
2022/04/22 01:32:09;;;;;;;16.63;8.88;;;6.40;99.90;;;6.07;75.95;100655.63;4786769;29;20194;-68
2022/04/22 01:34:38;;;;;;;13.48;7.85;;;6.30;99.90;;;5.98;76.75;100659.38;4787875;29;20217;-69
2022/04/22 01:37:09;;;;;;;11.65;7.75;;;6.20;99.90;;;6.07;76.08;100661.00;4788074;29;20198;-69
2022/04/22 01:39:38;;;;;;;11.25;7.50;;;6.20;99.90;;;5.93;77.17;100653.72;4789224;29;20205;-69
2022/04/22 01:42:07;;;;;;;12.63;7.93;;;6.10;99.90;;;5.80;77.34;100653.44;4788521;29;20206;-69
2022/04/22 01:44:37;;;;;;;11.90;7.05;;;6.00;99.90;;;5.74;77.88;100654.97;4788723;29;20226;-69
2022/04/22 01:47:07;;;;;;;15.40;8.00;;;6.00;99.90;;;5.75;77.96;100651.28;4789148;29;20194;-68
2022/04/22 01:49:36;;;;;;;11.70;7.80;;;6.00;99.90;;;5.82;77.86;100646.00;4789239;29;20194;-68
2022/04/22 01:52:05;;;;;;;18.55;8.27;;;6.00;99.90;;;5.74;77.73;100649.59;4789999;29;20206;-68
2022/04/22 01:54:35;;;;;;;12.23;7.65;;;6.00;99.90;;;5.88;77.89;100646.19;4790697;29;20226;-68
2022/04/22 01:57:06;;;;;;;21.08;9.57;;;6.00;99.90;;;5.84;77.66;100638.63;4790453;29;20182;-67
2022/04/22 01:59:35;;;;;;;14.27;9.80;;;6.00;99.90;;;5.84;77.43;100644.00;4788506;29;20548;-69
2022/04/22 02:02:05;;;;;;;15.15;7.68;;;6.00;99.90;;;5.89;77.36;100631.75;4787925;29;20631;-68
2022/04/22 02:04:34;;;;;;;15.48;8.35;;;6.00;99.90;;;5.76;78.06;100630.63;4787796;29;20773;-69
2022/04/22 02:07:04;;;;;;;16.08;7.70;;;5.90;99.90;;;5.62;78.36;100633.03;4788444;29;20329;-69
2022/04/22 02:09:33;;;;;;;11.90;6.68;;;5.90;99.90;;;5.64;78.93;100628.34;4788586;29;20190;-70
2022/04/22 02:12:04;;;;;;;14.20;8.77;;;5.80;99.90;;;5.84;78.47;100614.47;4817214;29;20198;-69
2022/04/22 02:14:33;;;;;;;17.52;9.52;;;5.90;99.90;;;5.87;78.15;100616.81;4788500;29;20712;-68
2022/04/22 02:17:03;;;;;;;17.25;8.38;;;6.00;99.90;;;5.85;78.04;100613.47;4787511;29;20202;-69
2022/04/22 02:19:31;;;;;;;14.52;8.15;;;6.00;99.90;;;5.78;77.95;100617.84;4788104;29;20186;-69
2022/04/22 02:22:00;;;;;;;14.48;8.95;;;6.00;99.90;;;5.68;78.43;100612.72;4787915;29;20244;-69
2022/04/22 02:24:29;;;;;;;9.45;7.20;;;5.90;99.90;;;5.64;78.48;100609.56;4787963;29;20222;-68
2022/04/22 02:29:46;;;;;;;21.25;9.52;;;5.80;99.90;;;5.57;79.01;100595.16;4788300;29;20262;-70
2022/04/22 02:32:14;;;;;;;13.70;7.90;;;5.80;99.90;;;5.57;78.97;100597.84;4787825;30;20247;-69
2022/04/22 02:34:44;;;;;;;13.00;7.80;;;5.70;99.90;;;5.43;79.34;100593.22;4774821;29;20645;-67
2022/04/22 02:37:12;;;;;;;15.32;8.77;;;5.60;99.90;;;5.51;79.28;100589.69;4769771;29;20224;-69
2022/04/22 02:39:41;;;;;;;13.95;8.55;;;5.60;99.90;;;5.35;79.64;100598.66;4769327;30;20210;-69
2022/04/22 02:47:43;;;;;;;16.60;8.23;;;5.60;99.90;;;5.47;79.01;100599.91;4769285;30;20217;-71
2022/04/22 02:50:11;;;;;;;14.57;9.25;;;5.60;99.90;;;5.39;79.54;100599.13;4769397;30;20191;-69
2022/04/22 02:52:40;;;;;;;13.05;7.30;;;5.60;99.90;;;5.33;79.79;100603.34;4769370;30;20210;-68
2022/04/22 02:55:09;;;;;;;12.20;7.80;;;5.50;99.90;;;5.33;80.14;100597.97;4769223;30;20222;-69
2022/04/22 02:57:38;;;;;;;19.77;8.40;;;5.50;99.90;;;5.35;79.95;100601.34;4769367;30;20537;-69
2022/04/22 03:00:11;;;;;;;13.50;7.75;;;5.50;99.90;;;5.48;79.42;100601.59;4768783;30;20302;-69
2022/04/22 03:02:40;;;;;;;15.38;9.07;;;5.60;99.90;;;5.48;79.56;100590.84;4768956;30;20203;-69
2022/04/22 03:05:10;;;;;;;10.55;7.95;;;5.50;99.90;;;5.40;79.93;100593.59;4771774;30;20250;-68
2022/04/22 03:07:39;;;;;;;15.77;9.18;;;5.60;99.90;;;5.39;80.09;100591.91;4772806;30;20289;-69
2022/04/22 03:10:08;;;;;;;14.90;9.00;;;5.50;99.90;;;5.46;79.96;100595.56;4772333;30;20634;-69
2022/04/22 03:12:37;;;;;;;15.07;11.45;;;5.60;99.90;;;5.48;79.56;100585.47;4786196;29;20199;-69
2022/04/22 03:15:08;;;;;;;15.95;9.32;;;5.60;99.90;;;5.34;80.04;100593.44;4772885;30;20239;-70
2022/04/22 03:17:37;;;;;;;18.75;10.35;;;5.50;99.90;;;5.42;79.86;100590.75;4772547;30;20189;-68
2022/04/22 03:20:07;;;;;;;20.10;9.73;;;5.50;99.90;;;5.46;79.24;100579.47;4772409;30;20290;-68
2022/04/22 03:22:36;;;;;;;16.40;9.27;;;5.50;99.90;;;5.36;79.49;100586.91;4772324;30;20191;-69
2022/04/22 03:25:05;;;;;;;14.25;10.32;;;5.50;99.90;;;5.35;79.92;100579.88;4772265;30;20566;-69
2022/04/22 03:27:34;;;;;;;14.18;10.30;;;5.50;99.90;;;5.41;79.55;100572.97;4772523;30;20195;-69
2022/04/22 03:30:03;;;;;;;16.88;10.95;;;5.50;99.90;;;5.29;80.09;100572.50;4772447;30;20187;-69
2022/04/22 03:32:33;;;;;;;17.75;11.93;;;5.40;99.90;;;5.34;80.16;100583.56;4772122;30;20677;-68
2022/04/22 03:35:06;;;;;;;17.38;10.02;;;5.40;99.90;;;5.33;80.16;100571.16;4772632;30;20597;-69
2022/04/22 03:37:34;;;;;;;13.68;10.00;;;5.50;99.90;;;5.37;79.87;100575.16;4772001;30;20238;-70
2022/04/22 03:40:03;;;;;;;17.95;10.65;;;5.50;99.90;;;5.31;80.14;100573.19;4771674;30;20191;-69
2022/04/22 03:42:32;;;;;;;13.23;9.45;;;5.40;99.90;;;5.35;80.10;100561.09;4771735;30;20634;-68
2022/04/22 03:45:01;;;;;;;13.77;10.40;;;5.50;99.90;;;5.35;79.62;100566.44;4771524;30;20301;-69
2022/04/22 03:47:29;;;;;;;14.63;9.35;;;5.50;99.90;;;5.32;79.89;100566.81;4771828;30;20230;-68
2022/04/22 03:49:59;;;;;;;14.10;9.77;;;5.50;99.90;;;5.42;79.56;100567.41;4771978;30;20737;-70
2022/04/22 03:52:29;;;;;;;16.95;10.52;;;5.50;99.90;;;5.41;79.66;100564.91;4771915;30;20622;-69
2022/04/22 03:54:57;;;;;;;23.55;11.45;;;5.50;99.90;;;5.25;80.28;100569.34;4771653;30;20583;-69
2022/04/22 04:00:13;;;;;;;20.05;11.43;;;5.40;99.90;;;5.38;79.41;100565.25;4771715;30;20270;-69
2022/04/22 04:02:42;;;;;;;15.80;10.70;;;5.50;99.90;;;5.40;79.50;100574.81;4771316;30;20274;-69
2022/04/22 04:05:12;;;;;;;15.15;9.82;;;5.50;99.90;;;5.44;79.72;100578.81;4771146;30;20233;-68
2022/04/22 04:07:41;;;;;;;17.95;9.70;;;5.50;99.90;;;5.37;79.58;100577.84;4770442;30;20202;-70
2022/04/22 04:16:01;;;;;;;17.73;12.75;;;5.50;99.90;;;5.41;79.41;100576.47;4773480;30;20248;-68
2022/04/22 04:18:32;;;;;;;20.05;12.15;;;5.50;99.90;;;5.49;80.01;100568.38;4774726;30;20191;-68
2022/04/22 04:23:53;;;;;;;17.48;12.00;;;5.60;99.90;;;5.43;79.07;100555.66;4775446;30;20712;-68
2022/04/22 04:26:25;;;;;;;14.57;10.55;;;5.50;99.90;;;5.37;79.16;100559.06;4775272;30;20197;-69
2022/04/22 04:28:55;;;;;;;13.80;10.25;;;5.50;99.90;;;5.37;79.33;100567.13;4774814;30;20198;-70
2022/04/22 04:31:23;;;;;;;20.35;11.50;;;5.50;99.90;;;5.44;79.35;100586.84;4774220;30;20249;-67
2022/04/22 04:33:52;;;;;;;16.83;12.27;;;5.50;99.90;;;5.40;79.80;100569.44;4775071;30;20245;-68
2022/04/22 04:36:22;;;;;;;18.77;11.73;;;5.50;99.90;;;5.48;79.08;100564.00;4776107;30;20199;-69
2022/04/22 04:38:51;;;;;;;16.17;11.50;;;5.50;99.90;;;5.40;79.62;100558.72;4782876;29;20198;-68
2022/04/22 04:41:20;;;;;;;15.05;11.40;;;5.50;99.90;;;5.48;79.48;100573.91;4794403;29;20694;-67
2022/04/22 04:43:49;;;;;;;18.15;11.02;;;5.50;99.90;;;5.62;79.10;100573.16;4793344;29;20229;-69
2022/04/22 04:46:18;;;;;;;17.73;11.80;;;5.60;99.90;;;5.49;79.34;100565.69;4795695;29;20187;-67
2022/04/22 04:48:47;;;;;;;13.02;11.45;;;5.60;99.90;;;5.48;79.26;100557.81;4795173;30;20228;-69
2022/04/22 04:51:16;;;;;;;15.60;11.57;;;5.50;99.90;;;5.59;79.08;100566.31;4795187;29;20202;-69
2022/04/22 04:53:46;;;;;;;19.67;13.45;;;5.60;99.90;;;5.79;78.49;100560.47;4794906;29;20320;-68
2022/04/22 04:56:15;;;;;;;18.55;11.80;;;5.70;99.90;;;5.74;78.20;100568.22;4795090;29;20194;-69
2022/04/22 04:58:44;;;;;;;16.63;12.45;;;5.80;99.90;;;5.88;77.79;100586.25;4794645;29;20179;-67
2022/04/22 05:01:12;;;;;;;21.20;11.38;;;5.80;99.90;;;6.19;78.38;100570.06;4793723;29;20226;-69
2022/04/22 05:03:41;;;;;;;17.33;10.90;;;6.00;99.90;;;6.94;73.76;100568.09;4793330;29;20659;-69
2022/04/22 05:06:12;;;;;;;12.20;9.35;;;6.30;99.90;;;6.63;74.08;100580.91;4795323;29;20615;-69
2022/04/22 05:08:42;;;;;;;28.85;21.52;;;6.40;99.90;;;6.59;75.13;100576.88;4795461;29;20190;-67
2022/04/22 05:11:13;;;;;;;46.08;29.58;;;6.50;99.90;;;7.43;72.20;100584.44;4793449;29;20258;-69
2022/04/22 05:13:42;;;;;;;21.52;13.85;;;6.80;99.90;;;7.09;72.88;100577.00;4794737;29;20249;-69
2022/04/22 05:16:11;;;;;;;20.83;12.57;;;6.90;99.90;;;6.87;73.53;100572.56;4794652;29;20610;-69
2022/04/22 05:18:40;;;;;;;15.75;10.43;;;6.90;99.90;;;6.85;73.90;100590.72;4790766;29;20194;-69
2022/04/22 05:21:09;;;;;;;17.27;10.40;;;6.80;99.90;;;7.13;73.08;100582.81;4790140;29;20183;-67
2022/04/22 05:23:38;;;;;;;19.45;11.48;;;6.90;99.90;;;6.96;73.36;100590.28;4790080;29;20210;-67
2022/04/22 05:26:10;;;;;;;11.77;9.38;;;7.00;99.90;;;6.97;73.26;100573.13;4789665;29;20195;-68
2022/04/22 05:28:40;;;;;;;11.45;9.38;;;7.00;99.90;;;6.97;73.69;100573.13;4789058;29;20179;-68
2022/04/22 05:33:56;;;;;;;14.65;10.00;;;7.00;99.90;;;7.26;73.22;100558.78;4788111;29;20314;-68
2022/04/22 05:36:24;;;;;;;12.13;10.40;;;7.10;99.90;;;7.33;72.58;100551.63;4788002;29;20202;-67
2022/04/22 05:38:59;;;;;;;15.52;10.60;;;7.30;99.90;;;7.32;72.73;100566.09;4788356;29;20671;-68
2022/04/22 05:41:28;;;;;;;18.23;13.75;;;7.30;99.90;;;7.43;72.18;100555.69;4787862;29;20193;-68
2022/04/22 05:43:58;;;;;;;18.08;10.15;;;7.40;99.90;;;7.43;72.43;100561.06;4788371;29;20222;-69
2022/04/22 05:46:27;;;;;;;20.33;11.43;;;7.30;99.90;;;7.40;72.83;100558.75;4788379;29;20450;-68
2022/04/22 05:48:55;;;;;;;19.65;12.30;;;7.40;99.90;;;7.47;72.53;100548.03;4788772;29;20251;-69
2022/04/22 05:51:24;;;;;;;17.48;11.45;;;7.40;99.90;;;7.51;72.36;100553.88;4788791;29;20197;-68
2022/04/22 05:53:53;;;;;;;14.80;9.90;;;7.50;99.90;;;7.63;71.85;100552.38;4788384;29;20256;-69
2022/04/22 05:56:21;;;;;;;15.75;10.15;;;7.50;99.90;;;7.66;71.64;100558.19;4789236;29;20190;-69
2022/04/22 05:58:50;;;;;;;15.65;10.73;;;7.60;99.90;;;7.95;71.09;100551.00;4789281;29;20209;-69
2022/04/22 06:01:20;;;;;;;19.55;10.18;;;7.80;99.90;;;8.14;70.40;100553.88;4788849;29;20186;-69
2022/04/22 06:06:48;;;;;;;14.70;10.02;;;8.20;99.90;;;8.54;68.64;100579.31;4829347;24;20249;-68
2022/04/22 06:12:02;;;;;;;15.25;9.77;;;8.50;99.90;;;8.43;68.15;100563.69;4771025;29;20641;-68
2022/04/22 06:14:31;;;;;;;25.63;22.13;;;8.50;99.90;;;8.15;69.30;100550.16;4770196;30;20242;-68
2022/04/22 06:17:02;;;;;;;14.75;10.45;;;8.30;99.90;;;8.33;68.86;100551.59;4770143;30;20211;-68
2022/04/22 06:19:31;;;;;;;39.90;34.60;;;8.30;99.90;;;8.17;69.21;100540.03;4769794;30;20183;-68
2022/04/22 06:21:59;;;;;;;41.63;35.42;;;8.20;99.90;;;8.24;68.86;100530.13;4769819;30;20274;-68
2022/04/22 06:24:28;;;;;;;25.67;22.92;;;8.20;99.90;;;8.61;68.30;100539.75;4769315;30;20711;-68
2022/04/22 06:26:57;;;;;;;12.18;10.02;;;8.30;99.90;;;8.83;67.06;100545.91;4779423;29;20427;-69
2022/04/22 06:29:26;;;;;;;15.13;9.43;;;8.60;99.90;;;8.86;66.76;100550.88;4798077;29;20191;-69
2022/04/22 06:31:55;;;;;;;13.00;10.23;;;8.70;99.90;;;8.97;66.45;100553.03;4787385;29;20208;-72
2022/04/22 06:34:26;;;;;;;13.35;10.55;;;8.80;99.90;;;8.95;65.86;100549.72;4787372;29;20348;-68
2022/04/22 06:36:55;;;;;;;13.13;8.30;;;8.90;99.70;;;9.00;65.87;100558.03;4787230;29;20675;-69
2022/04/22 06:39:25;;;;;;;14.32;10.35;;;8.90;99.90;;;8.97;65.75;100563.81;4789218;29;20661;-67
2022/04/22 06:47:29;;;;;;;14.15;9.38;;;9.20;98.80;;;9.19;65.42;100578.06;4790979;29;20210;-68
2022/04/22 06:50:00;;;;;;;15.25;10.10;;;9.20;97.40;;;9.10;65.65;100571.97;4790975;29;20202;-68
2022/04/22 06:52:29;;;;;;;10.70;9.15;;;9.10;98.00;;;9.09;65.75;100589.22;4790568;29;20195;-68
2022/04/22 06:54:59;;;;;;;14.65;9.18;;;9.20;97.90;;;9.05;65.91;100577.13;4791084;29;20210;-69
2022/04/22 06:57:30;;;;;;;10.60;8.52;;;9.10;99.40;;;9.28;65.31;100584.13;4792116;29;20577;-69
2022/04/22 06:59:59;;;;;;;10.52;9.48;;;9.20;98.50;;;9.45;64.74;100582.72;4790480;29;20239;-69
2022/04/22 07:02:29;;;;;;;8.95;8.02;;;9.30;97.60;;;9.54;64.19;100576.09;4790493;29;20198;-68
2022/04/22 07:05:07;;;;;;;11.73;9.40;;;9.40;95.60;;;9.53;63.70;100579.84;4790269;29;20225;-69
2022/04/22 07:07:36;;;;;;;13.48;8.02;;;9.40;92.40;;;9.71;63.14;100569.31;4790546;29;20210;-69
2022/04/22 07:10:06;;;;;;;11.95;8.60;;;9.50;91.40;;;9.69;62.68;100560.56;4790530;29;20193;-68
2022/04/22 07:12:35;;;;;;;9.52;8.52;;;9.60;87.20;;;9.67;62.86;100567.22;4790309;29;20241;-68
2022/04/22 07:15:06;;;;;;;17.52;9.77;;;9.60;85.50;;;9.51;63.41;100571.13;4790151;29;20210;-69
2022/04/22 07:17:37;;;;;;;13.18;10.52;;;9.50;87.70;;;9.63;63.37;100571.38;4790051;29;20273;-69
2022/04/22 07:20:10;;;;;;;9.27;8.07;;;9.50;89.40;;;9.69;62.95;100568.66;4790121;29;20198;-68
2022/04/22 07:22:44;;;;;;;8.88;7.97;;;9.60;88.10;;;9.75;62.91;100575.97;4789600;29;20198;-69
2022/04/22 07:25:15;;;;;;;10.77;8.70;;;9.70;87.50;;;9.96;62.59;100581.22;4788219;29;20295;-68
2022/04/22 07:27:46;;;;;;;18.02;9.27;;;9.80;85.60;;;10.20;62.10;100576.25;4789785;29;20205;-69
2022/04/22 07:30:18;;;;;;;10.90;8.00;;;10.00;82.20;;;10.25;61.87;100580.00;4790067;29;20549;-68
2022/04/22 07:32:48;;;;;;;12.13;7.70;;;10.10;77.90;;;10.31;61.98;100589.97;4790298;29;20202;-68
2022/04/22 07:35:21;;;;;;;13.00;9.68;;;10.20;76.60;;;10.22;62.39;100579.56;4789920;29;20216;-69
2022/04/22 07:37:52;;;;;;;12.87;10.60;;;10.20;76.60;;;10.46;62.05;100568.13;4790016;29;20274;-70
2022/04/22 07:40:22;;;;;;;17.45;11.40;;;10.30;78.40;;;10.53;61.94;100568.13;4789753;29;21010;-69
2022/04/22 07:48:43;;;;;;;16.30;11.60;;;10.10;87.10;;;9.94;64.48;100568.91;4789799;29;20186;-68
2022/04/22 07:51:13;;;;;;;18.23;11.07;;;10.00;91.70;;;9.88;64.80;100569.72;4789554;29;20187;-69
2022/04/22 07:53:41;;;;;;;19.63;11.48;;;9.90;94.10;;;9.97;64.90;100572.03;4789755;29;20418;-69
2022/04/22 07:56:10;;;;;;;17.25;12.73;;;9.90;95.60;;;10.12;64.60;100569.13;4789729;29;20190;-69
2022/04/22 07:58:39;;;;;;;16.88;12.10;;;10.00;94.90;;;10.13;64.79;100576.22;4789965;29;20190;-68
2022/04/22 08:01:08;;;;;;;16.08;11.23;;;10.00;95.80;;;10.13;64.97;100581.63;4790103;29;20198;-69
2022/04/22 08:03:37;;;;;;;22.33;13.03;;;10.10;96.10;;;10.13;64.92;100580.78;4789826;29;20185;-69
2022/04/22 08:06:07;;;;;;;13.90;11.47;;;10.10;95.70;;;10.08;65.13;100583.28;4789423;29;20539;-69
2022/04/22 08:08:37;;;;;;;16.75;13.35;;;10.10;95.80;;;9.99;65.44;100586.19;4789148;29;20446;-69
2022/04/22 08:11:05;;;;;;;15.35;11.48;;;10.10;96.50;;;10.05;65.46;100579.13;4789374;29;20192;-69
2022/04/22 08:13:35;;;;;;;19.80;12.00;;;10.00;97.70;;;10.11;65.20;100577.47;4789328;29;20275;-69
2022/04/22 08:16:04;;;;;;;14.33;12.33;;;10.10;97.30;;;10.27;65.14;100587.91;4789266;29;20589;-69
2022/04/22 08:18:33;;;;;;;15.93;12.77;;;10.20;97.30;;;10.34;65.28;100583.34;4789496;29;20412;-68
2022/04/22 08:21:02;;;;;;;13.13;11.85;;;10.30;97.30;;;10.44;65.48;100581.06;4789209;29;20231;-69
2022/04/22 08:23:31;;;;;;;17.87;14.77;;;10.40;98.20;;;10.39;66.15;100580.84;4788852;29;20204;-69
2022/04/22 08:26:01;;;;;;;16.77;14.70;;;10.40;99.40;;;10.59;65.91;100581.66;4788890;29;20450;-69
2022/04/22 08:28:29;;;;;;;16.63;13.53;;;10.50;99.90;;;10.95;64.90;100574.91;4789020;29;20416;-67
2022/04/22 08:30:58;;;;;;;19.77;15.00;;;10.70;98.80;;;11.02;64.52;100575.75;4788777;29;20446;-68
2022/04/22 08:33:27;;;;;;;19.00;13.07;;;10.90;96.30;;;11.05;64.06;100559.06;4788985;29;20483;-68
2022/04/22 08:35:56;;;;;;;16.00;14.20;;;10.90;95.00;;;11.09;64.14;100566.53;4789126;29;20522;-69
2022/04/22 08:38:25;;;;;;;22.43;15.43;;;11.00;95.20;;;11.22;64.06;100571.09;4788795;29;20401;-69
2022/04/22 08:40:54;;;;;;;16.20;14.50;;;11.00;95.10;;;11.53;63.30;100568.44;4788563;29;20797;-68
2022/04/22 08:43:25;;;;;;;15.40;13.37;;;11.20;92.70;;;11.83;62.33;100567.91;4789006;29;20432;-68
2022/04/22 08:45:54;;;;;;;15.97;14.10;;;11.50;90.90;;;11.70;62.04;100568.78;4788344;29;20507;-68
2022/04/22 08:51:21;;;;;;;14.90;12.07;;;11.60;83.20;;;12.01;61.35;100565.28;4806417;29;20488;-68
2022/04/22 08:53:54;;;;;;;16.73;12.40;;;11.80;77.90;;;11.69;61.93;100557.13;4806371;29;20413;-68
2022/04/22 08:56:23;;;;;;;19.73;14.23;;;11.60;77.80;;;11.48;62.96;100557.44;4806426;29;20435;-69
2022/04/22 08:58:53;;;;;;;17.70;14.93;;;11.50;83.00;;;11.56;63.46;100562.63;4806784;29;20907;-69
2022/04/22 09:01:22;;;;;;;15.40;12.00;;;11.50;88.90;;;11.71;63.34;100555.00;4805550;29;20406;-69
2022/04/22 09:03:51;;;;;;;16.00;12.83;;;11.50;90.90;;;11.77;62.80;100554.16;4787877;29;20495;-70
2022/04/22 09:06:25;;;;;;;15.53;12.60;;;11.60;90.30;;;11.99;62.54;100542.97;4783905;30;20521;-69
2022/04/22 09:08:59;;;;;;;14.73;12.90;;;11.80;88.00;;;11.82;62.85;100549.97;4788095;29;20712;-69
2022/04/22 09:11:31;;;;;;;13.57;12.13;;;11.80;85.60;;;11.70;63.28;100545.22;4788164;29;20518;-69
2022/04/22 09:14:04;;;;;;;15.37;13.77;;;11.60;88.10;;;11.73;63.02;100535.84;4789056;29;20550;-69
2022/04/22 09:16:33;;;;;;;20.67;13.47;;;11.60;89.20;;;11.66;64.16;100546.72;4788089;29;20958;-69
2022/04/22 09:19:04;;;;;;;15.80;13.13;;;11.60;92.50;;;11.98;63.48;100534.00;4788740;29;20822;-69
2022/04/22 09:21:32;;;;;;;15.17;13.10;;;11.70;92.60;;;11.93;63.00;100535.72;4787681;29;20466;-69
2022/04/22 09:24:13;;;;;;;17.60;15.17;;;11.80;90.30;;;11.84;63.43;100539.75;4787869;29;20463;-68
2022/04/22 09:26:42;;;;;;;14.73;12.70;;;11.80;90.60;;;12.04;63.38;100537.72;4788013;29;20947;-69
2022/04/22 09:29:12;;;;;;;14.90;13.20;;;11.80;91.60;;;12.32;62.88;100535.41;4787968;29;20422;-69
2022/04/22 09:31:49;;;;;;;18.33;15.30;;;12.00;92.30;;;12.37;62.93;100549.13;4787531;29;20506;-69
2022/04/22 09:34:34;;;;;;;19.90;16.30;;;12.20;90.80;;;12.48;62.47;100539.44;4787605;29;20465;-68
2022/04/22 09:42:56;;;;;;;23.17;15.17;;;12.30;90.20;;;12.59;62.69;100544.13;4787420;29;20847;-68
2022/04/22 09:45:39;;;;;;;16.97;15.17;;;12.30;91.10;;;12.69;62.53;100551.75;4787359;29;20443;-68
2022/04/22 09:48:17;;;;;;;19.87;15.60;;;12.40;89.40;;;12.62;62.65;100549.94;4787349;29;20530;-69
2022/04/22 09:50:52;;;;;;;16.67;14.90;;;12.60;85.50;;;12.67;62.59;100540.31;4789055;29;20394;-69
2022/04/22 09:53:33;;;;;;;20.33;16.67;;;12.50;87.90;;;13.05;62.19;100530.88;4787399;29;20403;-70
2022/04/22 09:56:08;;;;;;;19.67;16.53;;;12.80;88.00;;;13.17;61.64;100532.88;4784414;29;20879;-68
2022/04/22 09:58:38;;;;;;;21.60;16.13;;;12.90;83.90;;;13.49;60.72;100539.78;4805335;29;20924;-69
2022/04/22 10:01:08;;;;;;;21.20;16.80;;;13.10;79.80;;;13.61;60.58;100526.22;4805329;29;20416;-70
2022/04/22 10:03:39;;;;;;;16.90;14.93;;;13.30;74.70;;;14.18;59.69;100531.00;4804971;29;20414;-69
2022/04/22 10:06:07;;;;;;;22.90;20.70;;;13.70;72.90;;;13.99;59.90;100537.56;4805347;29;20909;-69
2022/04/22 10:08:37;;;;;;;18.50;15.50;;;13.80;62.00;;;14.26;59.73;100530.66;4805507;29;20413;-69
2022/04/22 10:11:08;;;;;;;18.20;16.37;;;14.00;64.30;;;14.39;59.32;100531.50;4805455;29;20426;-69
2022/04/22 10:13:43;;;;;;;20.33;17.33;;;14.10;59.50;;;14.56;58.52;100535.19;4805225;29;20979;-69
2022/04/22 10:16:14;;;;;;;17.47;15.40;;;14.20;55.70;;;14.53;58.13;100531.03;4812904;29;20440;-70
2022/04/22 10:18:44;;;;;;;19.43;17.07;;;14.20;52.70;;;14.72;57.91;100527.13;4814099;29;20408;-68
2022/04/22 10:21:12;;;;;;;19.93;17.83;;;14.40;50.20;;;14.81;57.27;100526.78;4811262;29;20390;-68
2022/04/22 10:23:46;;;;;;;18.77;16.90;;;14.50;46.20;;;14.86;57.53;100533.16;4809619;29;20402;-69
2022/04/22 10:26:16;;;;;;;17.27;15.57;;;14.50;46.90;;;14.81;57.20;100535.78;4814569;29;20402;-68
2022/04/22 10:28:47;;;;;;;19.80;17.77;;;14.60;42.30;;;14.39;58.35;100520.63;4805086;29;20451;-68
2022/04/22 10:31:18;;;;;;;19.63;17.60;;;14.40;43.20;;;14.32;58.63;100529.72;4806051;29;20468;-68
2022/04/22 10:33:48;;;;;;;19.77;17.70;;;14.20;46.20;;;14.28;58.76;100525.78;4805564;29;20413;-69
2022/04/22 10:36:24;;;;;;;21.03;18.67;;;14.20;46.70;;;14.07;59.60;100529.09;4805140;29;20423;-69
2022/04/22 10:38:53;;;;;;;19.03;16.87;;;14.00;48.90;;;13.95;59.97;100522.78;4804920;29;21028;-68
2022/04/22 10:41:23;;;;;;;20.80;18.80;;;13.90;53.20;;;13.76;60.64;100529.34;4803575;29;20445;-69
2022/04/22 10:49:39;;;;;;;20.93;18.83;;;13.70;60.10;;;14.18;59.52;100516.56;4804504;29;20410;-69
2022/04/22 10:52:14;;;;;;;21.77;19.67;;;13.80;59.70;;;14.07;59.91;100512.75;4804606;29;20438;-69
2022/04/22 10:55:08;;;;;;;20.70;17.60;;;13.90;57.80;;;14.20;59.67;100511.69;4803925;29;20545;-67
2022/04/22 10:57:42;;;;;;;20.90;18.90;;;13.90;57.30;;;14.31;59.50;100509.00;4786760;29;20927;-69
2022/04/22 11:00:29;;;;;;;19.93;17.97;;;14.10;56.30;;;14.42;59.24;100512.81;4786923;29;20442;-69
2022/04/22 11:03:11;;;;;;;20.97;18.93;;;14.10;55.70;;;14.31;59.23;100509.00;4786999;29;20435;-68
2022/04/22 11:05:46;;;;;;;21.33;18.40;;;14.20;53.20;;;14.13;59.76;100514.53;4786976;29;20992;-68
2022/04/22 11:08:29;;;;;;;20.50;18.63;;;14.10;53.90;;;14.26;59.64;100508.88;4786522;29;20484;-69
2022/04/22 11:11:05;;;;;;;19.83;17.93;;;14.10;56.60;;;14.22;60.18;100515.84;4772016;29;20412;-69
2022/04/22 11:13:39;;;;;;;20.90;18.23;;;14.10;57.00;;;14.30;59.85;100518.22;4788683;29;21058;-69
2022/04/22 11:16:14;;;;;;;22.80;19.93;;;14.10;56.50;;;14.20;60.22;100523.41;4784243;30;20413;-69
2022/04/22 11:18:45;;;;;;;21.83;19.23;;;14.10;57.90;;;13.92;60.91;100515.09;4787084;29;20489;-69
2022/04/22 11:21:42;;;;;;;22.70;20.40;;;14.00;58.70;;;13.84;61.50;100516.25;4786494;29;20976;-69
2022/04/22 11:24:17;;;;;;;21.93;19.83;;;13.80;65.50;;;14.01;61.01;100513.69;4786655;29;20977;-68
2022/04/22 11:26:46;;;;;;;25.00;22.43;;;13.80;68.80;;;13.76;61.11;100515.75;4789963;29;20798;-68
2022/04/22 11:29:17;;;;;;;22.80;20.70;;;13.70;65.50;;;13.76;61.50;100518.47;4788270;29;20460;-70